Time;durP1;ratioP1;P1;durP2;ratioP2;P2;SDS_P1;SDS_P2;PMS_P1;PMS_P2;Temp;Humidity;BMP_temperature;BMP_pressure;BME280_temperature;BME280_humidity;BME280_pressure;Samples;Min_cycle;Max_cycle;Signal;HPM_P1;HPM_P2
2022/03/08 00:01:03;;;;;;;33.33;16.08;;;;;;;22.27;15.32;98589.41;5086902;28;20442;-78
2022/03/08 00:03:29;;;;;;;33.17;14.23;;;;;;;22.22;15.15;98595.44;5083635;28;20039;-78
2022/03/08 00:05:56;;;;;;;38.15;15.70;;;;;;;22.30;15.16;98585.81;5086664;28;20031;-78
2022/03/08 00:08:22;;;;;;;34.65;15.30;;;;;;;22.41;14.97;98583.72;5086005;28;20020;-78
2022/03/08 00:10:48;;;;;;;33.13;16.00;;;;;;;22.57;15.02;98586.00;5082465;28;20477;-78
2022/03/08 00:13:15;;;;;;;36.17;14.30;;;;;;;22.51;15.04;98582.06;5088022;28;20031;-78
2022/03/08 00:15:41;;;;;;;31.63;13.25;;;;;;;21.96;15.58;98585.59;5082596;28;20020;-78
2022/03/08 00:18:07;;;;;;;27.77;14.23;;;;;;;21.92;15.62;98586.81;5080548;28;20535;-78
2022/03/08 00:20:33;;;;;;;31.38;12.13;;;;;;;21.67;15.90;98589.72;5067357;28;20132;-78
2022/03/08 00:22:59;;;;;;;34.63;15.35;;;;;;;21.87;15.78;98593.63;5077820;28;20024;-78
2022/03/08 00:25:26;;;;;;;25.63;11.38;;;;;;;21.85;15.75;98600.81;5087368;28;20059;-78
2022/03/08 00:27:53;;;;;;;34.25;15.07;;;;;;;21.97;15.85;98592.00;5085430;28;20037;-78
2022/03/08 00:30:23;;;;;;;36.90;15.52;;;;;;;22.25;15.47;98591.03;5084786;28;20052;-78
2022/03/08 00:32:52;;;;;;;30.40;13.82;;;;;;;22.52;15.34;98589.25;5081037;28;20032;-78
2022/03/08 00:35:19;;;;;;;32.03;14.43;;;;;;;22.29;15.60;98594.59;5087178;28;20034;-78
2022/03/08 00:37:47;;;;;;;29.42;14.25;;;;;;;22.40;15.40;98596.13;5085906;28;20036;-78
2022/03/08 00:40:15;;;;;;;38.55;18.08;;;;;;;22.31;15.68;98598.56;5080645;28;20024;-78
2022/03/08 00:42:41;;;;;;;30.92;13.93;;;;;;;22.37;15.45;98596.94;5080755;28;20025;-78
2022/03/08 00:45:08;;;;;;;34.30;15.82;;;;;;;22.54;15.35;98596.00;5067366;28;20422;-78
2022/03/08 00:47:40;;;;;;;31.38;15.63;;;;;;;22.73;15.42;98600.31;5084410;28;20043;-78
2022/03/08 00:50:09;;;;;;;32.40;15.18;;;;;;;22.10;15.81;98598.69;5080354;28;20027;-78
2022/03/08 00:52:35;;;;;;;36.65;15.50;;;;;;;21.80;16.13;98604.00;5081835;28;20028;-78
2022/03/08 00:55:03;;;;;;;31.08;15.02;;;;;;;21.89;16.01;98599.59;5080991;28;20043;-78
2022/03/08 00:57:29;;;;;;;32.95;15.93;;;;;;;22.04;16.02;98603.13;5084783;28;20063;-78
2022/03/08 00:59:55;;;;;;;36.05;15.70;;;;;;;21.96;16.07;98602.38;5083950;28;20044;-78
2022/03/08 01:02:21;;;;;;;39.22;16.35;;;;;;;21.90;16.26;98598.41;5079953;28;20028;-78
2022/03/08 01:04:47;;;;;;;33.80;15.65;;;;;;;21.74;16.29;98600.06;5080752;28;20149;-78
2022/03/08 01:07:14;;;;;;;31.23;15.43;;;;;;;21.64;16.52;98609.28;5080538;28;20413;-79
2022/03/08 01:09:40;;;;;;;35.22;15.93;;;;;;;21.79;16.30;98603.25;5085820;28;20404;-78
2022/03/08 01:12:07;;;;;;;34.35;16.55;;;;;;;21.79;16.45;98599.63;5080779;28;20036;-78
2022/03/08 01:14:34;;;;;;;33.15;16.70;;;;;;;21.56;16.49;98602.13;5065321;28;20047;-79
2022/03/08 01:17:00;;;;;;;41.90;18.70;;;;;;;21.95;16.34;98598.00;5085459;28;20035;-79
2022/03/08 01:19:26;;;;;;;34.65;14.77;;;;;;;21.72;16.44;98594.88;5081625;28;21595;-78
2022/03/08 01:21:52;;;;;;;46.95;21.40;;;;;;;21.35;16.74;98591.81;5085020;28;20028;-79
2022/03/08 01:24:18;;;;;;;41.20;18.77;;;;;;;21.28;17.02;98603.78;5083542;28;20119;-78
2022/03/08 01:26:44;;;;;;;34.65;15.00;;;;;;;20.51;17.69;98593.47;5081914;28;20047;-78
2022/03/08 01:29:10;;;;;;;34.55;15.15;;;;;;;20.80;17.54;98597.06;5080560;28;20059;-78
2022/03/08 01:31:37;;;;;;;32.40;15.10;;;;;;;20.99;17.27;98595.84;5083619;28;20107;-79
2022/03/08 01:34:03;;;;;;;28.38;14.13;;;;;;;21.15;17.11;98591.47;5080702;28;20062;-78
2022/03/08 01:36:29;;;;;;;36.60;15.43;;;;;;;20.88;17.34;98587.50;5081765;28;20033;-78
2022/03/08 01:38:55;;;;;;;32.38;15.45;;;;;;;20.78;17.52;98588.28;5081182;28;20028;-78
2022/03/08 01:41:22;;;;;;;35.70;16.33;;;;;;;20.81;17.45;98583.91;5083722;28;20078;-78
2022/03/08 01:43:48;;;;;;;32.45;15.23;;;;;;;20.82;17.46;98583.50;5081994;28;20111;-79
2022/03/08 01:46:15;;;;;;;38.42;17.23;;;;;;;20.95;17.34;98587.47;5079112;28;20135;-78
2022/03/08 01:48:42;;;;;;;34.92;16.25;;;;;;;20.57;17.38;98579.91;5082639;28;20121;-78
2022/03/08 01:51:08;;;;;;;32.22;15.65;;;;;;;20.50;17.51;98586.31;5085152;28;20028;-79
2022/03/08 01:53:37;;;;;;;35.90;16.42;;;;;;;20.47;17.69;98575.13;5085883;28;20032;-79
2022/03/08 01:56:04;;;;;;;38.20;16.40;;;;;;;20.61;17.42;98573.16;5065729;28;20042;-78
2022/03/08 01:58:30;;;;;;;36.55;18.52;;;;;;;20.59;17.41;98566.38;5087788;28;20035;-78
2022/03/08 02:00:56;;;;;;;38.60;18.65;;;;;;;20.70;17.32;98569.94;5085008;28;20024;-78
2022/03/08 02:03:22;;;;;;;35.80;16.55;;;;;;;20.88;17.09;98565.16;5085853;28;20036;-78
2022/03/08 02:05:48;;;;;;;40.97;18.13;;;;;;;21.06;16.81;98568.75;5083417;28;20028;-78
2022/03/08 02:08:14;;;;;;;33.72;16.33;;;;;;;20.79;16.91;98569.56;5084598;28;20032;-78
2022/03/08 02:10:41;;;;;;;43.60;18.45;;;;;;;20.74;17.23;98572.75;5084993;28;20024;-79
2022/03/08 02:13:07;;;;;;;39.67;18.52;;;;;;;20.50;17.15;98568.75;5084389;28;20032;-78
2022/03/08 02:15:33;;;;;;;31.15;15.20;;;;;;;20.99;16.90;98567.91;5091647;28;20078;-78
2022/03/08 02:18:01;;;;;;;40.20;16.65;;;;;;;21.48;16.27;98562.25;5082869;28;20039;-78
2022/03/08 02:20:28;;;;;;;40.25;16.77;;;;;;;21.84;15.80;98565.72;5087072;28;20032;-78
2022/03/08 02:22:55;;;;;;;30.17;14.13;;;;;;;22.00;15.55;98566.81;5083756;28;20028;-78
2022/03/08 02:25:22;;;;;;;30.85;14.60;;;;;;;22.30;15.30;98557.81;5083756;28;20071;-78
2022/03/08 02:27:53;;;;;;;33.72;13.88;;;;;;;22.40;14.92;98559.75;5067885;28;20047;-78
2022/03/08 02:30:22;;;;;;;34.50;14.60;;;;;;;22.43;14.79;98564.50;5085759;28;20029;-79
2022/03/08 02:32:49;;;;;;;32.83;14.60;;;;;;;22.41;14.96;98566.13;5085575;28;20081;-78
2022/03/08 02:35:20;;;;;;;37.67;16.50;;;;;;;22.43;14.67;98561.72;5084963;28;20048;-78
2022/03/08 02:37:55;;;;;;;37.60;16.05;;;;;;;22.03;15.17;98563.19;5084064;28;20657;-78
2022/03/08 02:40:24;;;;;;;36.03;15.98;;;;;;;21.80;15.48;98567.66;5086410;28;20028;-78
2022/03/08 02:42:51;;;;;;;42.42;18.42;;;;;;;21.43;15.90;98565.44;5083697;28;20078;-78
2022/03/08 02:45:17;;;;;;;35.88;16.40;;;;;;;21.36;15.62;98565.47;5085195;28;20423;-78
2022/03/08 02:47:44;;;;;;;37.03;15.95;;;;;;;21.41;15.60;98579.03;5089601;28;20047;-79
2022/03/08 02:50:12;;;;;;;29.73;14.00;;;;;;;21.55;15.29;98576.19;5070697;28;20042;-78
2022/03/08 02:52:40;;;;;;;31.88;13.40;;;;;;;21.81;15.23;98577.66;5086796;28;20025;-78
2022/03/08 02:55:08;;;;;;;33.25;13.27;;;;;;;22.12;14.93;98584.31;5083081;28;20377;-78
2022/03/08 02:57:35;;;;;;;26.67;11.00;;;;;;;22.39;14.63;98579.72;5082694;28;20040;-78
2022/03/08 03:00:03;;;;;;;28.30;12.07;;;;;;;22.45;14.59;98576.09;5085846;28;20077;-78
2022/03/08 03:02:29;;;;;;;34.50;13.32;;;;;;;22.62;14.74;98575.19;5082787;28;20064;-78
2022/03/08 03:04:55;;;;;;;24.17;12.50;;;;;;;22.72;14.53;98581.09;5082007;28;20036;-78
2022/03/08 03:07:24;;;;;;;29.30;13.02;;;;;;;22.95;14.36;98570.09;5073919;28;20520;-78
2022/03/08 03:09:50;;;;;;;28.58;12.35;;;;;;;23.11;14.49;98582.34;5083885;28;20032;-78
2022/03/08 03:12:17;;;;;;;22.25;11.57;;;;;;;23.22;14.20;98576.66;5080251;28;20028;-78
2022/03/08 03:14:43;;;;;;;28.42;13.48;;;;;;;22.91;14.34;98586.16;5082619;28;20040;-78
2022/03/08 03:17:10;;;;;;;26.88;13.05;;;;;;;22.95;14.42;98593.31;5081482;28;20056;-78
2022/03/08 03:19:36;;;;;;;29.13;13.38;;;;;;;22.88;14.70;98590.56;5085672;28;20105;-79
2022/03/08 03:22:03;;;;;;;30.10;14.02;;;;;;;22.41;15.32;98597.72;5084368;28;20111;-78
2022/03/08 03:24:29;;;;;;;34.17;16.67;;;;;;;22.08;15.90;98601.09;5083827;28;20036;-79
2022/03/08 03:26:55;;;;;;;30.17;14.48;;;;;;;21.65;16.35;98605.28;5083906;28;20395;-79
2022/03/08 03:29:21;;;;;;;27.67;14.02;;;;;;;20.78;17.28;98602.25;5083990;28;20035;-79
2022/03/08 03:31:47;;;;;;;32.97;13.98;;;;;;;19.82;18.01;98609.63;5083806;28;20031;-79
2022/03/08 03:34:14;;;;;;;28.58;12.88;;;;;;;19.66;18.32;98617.53;5085360;28;20124;-79
2022/03/08 03:36:40;;;;;;;31.70;14.82;;;;;;;18.65;19.33;98612.06;5087794;28;20408;-79
2022/03/08 03:39:06;;;;;;;36.90;16.65;;;;;;;19.52;18.71;98623.03;5083515;28;20040;-79
2022/03/08 03:41:33;;;;;;;34.47;15.10;;;;;;;17.64;20.53;98610.59;5082048;28;20089;-78
2022/03/08 03:43:59;;;;;;;53.60;25.13;;;;;;;18.57;20.16;98614.78;5081220;28;20027;-79
2022/03/08 03:46:25;;;;;;;50.95;23.08;;;;;;;18.39;20.23;98611.00;5083006;28;20066;-79
2022/03/08 03:48:51;;;;;;;44.97;19.30;;;;;;;19.02;19.55;98610.75;5081929;28;20112;-79
2022/03/08 03:51:17;;;;;;;35.65;16.00;;;;;;;19.19;19.24;98610.06;5078826;28;20036;-79
2022/03/08 03:53:44;;;;;;;40.63;17.77;;;;;;;18.40;19.80;98609.03;5081249;28;20431;-79
2022/03/08 03:56:11;;;;;;;38.25;18.45;;;;;;;19.15;19.19;98614.84;5080926;28;20063;-79
2022/03/08 03:58:37;;;;;;;46.63;20.50;;;;;;;18.73;19.63;98614.53;5083091;28;20040;-79
2022/03/08 04:01:04;;;;;;;52.42;22.60;;;;;;;18.83;19.67;98618.56;5082543;28;20028;-79
2022/03/08 04:03:31;;;;;;;52.25;23.92;;;;;;;19.65;18.96;98618.69;5081987;28;20040;-79
2022/03/08 04:05:57;;;;;;;47.78;24.02;;;;;;;19.00;19.58;98626.22;5084690;28;20689;-79
2022/03/08 04:08:23;;;;;;;58.28;25.10;;;;;;;19.04;19.46;98627.09;5080914;28;20028;-79
2022/03/08 04:10:50;;;;;;;52.85;24.67;;;;;;;18.97;19.43;98618.69;5083914;28;20033;-79
2022/03/08 04:13:17;;;;;;;51.47;20.02;;;;;;;18.80;19.57;98622.91;5078126;28;20032;-79
2022/03/08 04:15:44;;;;;;;47.47;22.67;;;;;;;19.53;18.97;98634.97;5082999;28;20044;-79
2022/03/08 04:18:11;;;;;;;41.92;18.98;;;;;;;19.91;18.62;98635.13;5079460;28;20028;-79
2022/03/08 04:20:37;;;;;;;39.58;18.17;;;;;;;20.22;18.36;98632.84;5081680;28;20036;-79
2022/03/08 04:23:03;;;;;;;41.58;19.10;;;;;;;19.78;18.47;98642.25;5081359;28;20097;-78
2022/03/08 04:25:30;;;;;;;42.13;17.88;;;;;;;18.57;19.84;98647.38;5083785;28;20051;-79
2022/03/08 04:27:56;;;;;;;45.35;20.52;;;;;;;18.74;19.39;98655.03;5080186;28;20072;-79
2022/03/08 04:30:22;;;;;;;40.33;18.92;;;;;;;18.75;19.79;98653.06;5081614;28;20454;-79
2022/03/08 04:32:50;;;;;;;34.25;17.38;;;;;;;18.81;19.72;98649.53;5067835;28;20052;-79
2022/03/08 04:35:17;;;;;;;38.63;18.13;;;;;;;18.61;19.55;98657.34;5079010;28;20037;-79
2022/03/08 04:37:44;;;;;;;37.63;17.75;;;;;;;18.45;19.97;98664.28;5066988;28;20096;-79
2022/03/08 04:40:11;;;;;;;46.78;20.25;;;;;;;19.02;19.76;98657.28;5081308;28;20070;-79
2022/03/08 04:42:38;;;;;;;44.95;20.10;;;;;;;18.25;20.17;98662.91;5084170;28;20044;-79
2022/03/08 04:45:05;;;;;;;52.95;25.35;;;;;;;19.02;19.61;98662.84;5083802;28;20032;-79
2022/03/08 04:47:34;;;;;;;63.75;28.02;;;;;;;19.47;19.08;98650.44;5082387;28;20040;-79
2022/03/08 04:50:00;;;;;;;47.15;21.45;;;;;;;19.77;18.68;98651.78;5083449;28;20054;-79
2022/03/08 04:52:26;;;;;;;51.90;23.05;;;;;;;19.52;18.99;98659.22;5084614;28;20032;-79
2022/03/08 04:54:52;;;;;;;55.53;24.13;;;;;;;19.45;18.98;98664.75;5083450;28;20016;-79
2022/03/08 04:57:18;;;;;;;50.97;22.35;;;;;;;19.06;19.43;98666.44;5086695;28;20123;-79
2022/03/08 04:59:44;;;;;;;51.65;22.70;;;;;;;19.53;18.91;98663.63;5082306;28;20040;-79
2022/03/08 05:02:10;;;;;;;46.90;20.75;;;;;;;20.06;18.60;98663.06;5065825;28;20443;-79
2022/03/08 05:04:36;;;;;;;45.97;21.38;;;;;;;20.26;18.18;98669.91;5079100;28;20032;-79
2022/03/08 05:07:03;;;;;;;42.08;19.15;;;;;;;20.87;17.66;98660.44;5083297;28;20036;-79
2022/03/08 05:09:29;;;;;;;56.00;25.40;;;;;;;20.36;18.15;98666.34;5080765;28;20036;-79
2022/03/08 05:11:55;;;;;;;42.90;19.70;;;;;;;20.56;17.87;98664.81;5065763;28;20860;-79
2022/03/08 05:14:21;;;;;;;42.97;18.63;;;;;;;20.09;18.34;98677.03;5083388;28;20056;-79
2022/03/08 05:16:47;;;;;;;42.92;18.83;;;;;;;20.30;18.06;98677.13;5065375;28;20036;-79
2022/03/08 05:19:13;;;;;;;42.17;18.73;;;;;;;20.38;18.02;98673.13;5085675;28;20072;-78
2022/03/08 05:21:39;;;;;;;41.28;19.15;;;;;;;20.84;17.65;98672.41;5083585;28;20035;-78
2022/03/08 05:24:06;;;;;;;36.17;17.15;;;;;;;20.79;17.48;98672.81;5091024;28;20046;-79
2022/03/08 05:26:32;;;;;;;35.53;16.67;;;;;;;20.96;17.34;98681.19;5082088;28;20505;-79
2022/03/08 05:28:58;;;;;;;40.97;18.63;;;;;;;21.03;17.26;98680.38;5083337;28;20077;-78
2022/03/08 05:31:24;;;;;;;40.00;16.73;;;;;;;20.94;17.34;98683.56;5087205;28;20047;-78
2022/03/08 05:33:50;;;;;;;33.63;15.40;;;;;;;21.19;17.19;98686.41;5087376;28;20385;-78
2022/03/08 05:36:17;;;;;;;36.45;17.85;;;;;;;21.08;17.15;98689.19;5084296;28;20366;-78
2022/03/08 05:38:43;;;;;;;40.58;17.73;;;;;;;21.23;17.13;98687.19;5084857;28;20489;-78
2022/03/08 05:41:09;;;;;;;29.42;13.40;;;;;;;21.27;17.05;98697.16;5084532;28;20024;-79
2022/03/08 05:43:35;;;;;;;34.95;16.58;;;;;;;21.52;16.83;98701.94;5083660;28;20108;-79
2022/03/08 05:46:01;;;;;;;33.45;15.48;;;;;;;21.52;16.75;98699.91;5086800;28;20032;-79
2022/03/08 05:48:27;;;;;;;35.65;15.75;;;;;;;21.71;16.84;98693.88;5087322;28;20039;-79
2022/03/08 05:50:53;;;;;;;32.92;16.17;;;;;;;21.26;17.15;98700.38;5069351;28;20115;-79
2022/03/08 05:53:19;;;;;;;38.55;18.85;;;;;;;21.12;17.32;98697.59;5090616;28;20453;-80
2022/03/08 05:55:45;;;;;;;42.05;18.50;;;;;;;21.33;17.11;98703.16;5085656;28;20059;-79
2022/03/08 05:58:12;;;;;;;39.35;18.58;;;;;;;21.25;17.00;98709.94;5084150;28;20053;-79
2022/03/08 06:00:38;;;;;;;39.85;18.92;;;;;;;21.51;17.01;98711.50;5066117;28;20115;-80
2022/03/08 06:03:05;;;;;;;34.40;15.82;;;;;;;20.89;17.57;98711.06;5080091;28;20033;-80
2022/03/08 06:05:31;;;;;;;43.40;18.90;;;;;;;21.03;17.50;98702.72;5081978;28;20036;-79
2022/03/08 06:07:57;;;;;;;32.17;15.23;;;;;;;21.43;17.18;98702.31;5085725;28;20644;-81
2022/03/08 06:10:24;;;;;;;32.40;15.02;;;;;;;21.22;17.31;98700.34;5085344;28;20035;-79
2022/03/08 06:12:50;;;;;;;29.35;14.50;;;;;;;21.05;17.44;98695.56;5084237;28;20032;-79
2022/03/08 06:15:16;;;;;;;32.83;14.05;;;;;;;21.13;17.40;98696.38;5085575;28;20406;-79
2022/03/08 06:17:42;;;;;;;32.17;15.05;;;;;;;20.30;18.10;98709.78;5085962;28;20040;-79
2022/03/08 06:20:09;;;;;;;22.17;11.07;;;;;;;21.20;17.47;98697.16;5083274;28;20074;-79
2022/03/08 06:22:35;;;;;;;22.40;11.40;;;;;;;21.53;16.95;98697.94;5065917;28;20035;-79
2022/03/08 06:25:01;;;;;;;25.75;10.88;;;;;;;21.89;16.85;98699.47;5086280;28;20123;-79
2022/03/08 06:27:28;;;;;;;25.52;11.93;;;;;;;19.74;18.27;98696.38;5083944;28;20037;-79
2022/03/08 06:29:54;;;;;;;20.20;9.45;;;;;;;20.53;18.02;98710.25;5080593;28;20028;-79
2022/03/08 06:32:20;;;;;;;21.98;10.10;;;;;;;20.71;17.94;98715.84;5067250;28;20482;-79
2022/03/08 06:34:46;;;;;;;17.70;8.63;;;;;;;21.30;17.33;98709.53;5083351;28;20082;-79
2022/03/08 06:37:13;;;;;;;15.52;7.70;;;;;;;20.75;17.70;98719.47;5066363;28;20039;-79
2022/03/08 06:39:39;;;;;;;14.10;7.70;;;;;;;20.78;17.76;98705.50;5085073;28;20056;-79
2022/03/08 06:42:06;;;;;;;19.13;8.63;;;;;;;20.93;17.64;98709.91;5086823;28;20051;-79
2022/03/08 06:44:32;;;;;;;19.35;9.60;;;;;;;19.28;18.87;98718.28;5081394;28;20077;-79
2022/03/08 06:46:58;;;;;;;17.63;8.63;;;;;;;19.51;18.96;98716.09;5084609;28;20058;-79
2022/03/08 06:49:25;;;;;;;17.45;8.18;;;;;;;19.69;19.01;98724.59;5079181;28;20046;-79
2022/03/08 06:51:51;;;;;;;12.32;6.47;;;;;;;18.31;19.96;98723.31;5083317;28;20085;-79
2022/03/08 06:54:17;;;;;;;13.15;6.70;;;;;;;18.73;19.87;98731.34;5078550;28;20029;-79
2022/03/08 06:56:43;;;;;;;16.38;7.78;;;;;;;19.22;19.39;98728.19;5083096;28;20048;-79
2022/03/08 06:59:09;;;;;;;18.25;9.55;;;;;;;19.54;18.86;98732.03;5067305;28;20504;-79
2022/03/08 07:01:35;;;;;;;20.25;8.95;;;;;;;19.45;19.36;98731.59;5083187;28;20040;-79
2022/03/08 07:04:02;;;;;;;25.35;10.73;;;;;;;20.63;18.36;98737.38;5078748;28;20028;-79
2022/03/08 07:06:28;;;;;;;31.90;13.90;;;;;;;21.43;17.89;98733.06;5084099;28;20469;-79
2022/03/08 07:08:54;;;;;;;28.83;13.35;;;;;;;21.12;17.72;98739.47;5072405;28;20115;-79
2022/03/08 07:11:20;;;;;;;18.85;9.45;;;;;;;21.11;17.58;98730.28;5079319;28;20028;-79
2022/03/08 07:13:47;;;;;;;25.30;11.55;;;;;;;21.73;17.39;98724.22;5080782;28;20031;-79
2022/03/08 07:16:13;;;;;;;21.90;11.57;;;;;;;21.84;17.16;98719.47;5083901;28;20071;-79
2022/03/08 07:18:39;;;;;;;21.13;10.18;;;;;;;21.42;17.36;98725.09;5091765;28;20473;-79
2022/03/08 07:21:05;;;;;;;23.13;12.20;;;;;;;21.95;17.06;98711.81;5078057;28;20075;-79
2022/03/08 07:23:32;;;;;;;22.80;11.35;;;;;;;22.32;16.76;98708.47;5086456;28;20512;-79
2022/03/08 07:25:58;;;;;;;27.77;12.38;;;;;;;22.70;16.25;98704.69;5083875;28;20458;-79
2022/03/08 07:28:24;;;;;;;21.67;11.13;;;;;;;22.86;16.06;98702.19;5063315;28;20170;-79
2022/03/08 07:30:51;;;;;;;29.83;12.23;;;;;;;22.95;16.13;98710.91;5085431;28;20936;-79
2022/03/08 07:33:17;;;;;;;23.00;12.07;;;;;;;23.58;16.26;98706.00;5084242;28;20459;-79
2022/03/08 07:35:43;;;;;;;24.88;11.73;;;;;;;23.64;15.81;98696.72;5086145;28;20486;-79
2022/03/08 07:38:09;;;;;;;36.42;17.25;;;;;;;22.35;16.67;98704.88;5081118;28;20048;-79
2022/03/08 07:40:36;;;;;;;23.83;13.73;;;;;;;21.75;16.96;98705.06;5089645;28;20036;-79
2022/03/08 07:43:02;;;;;;;17.52;8.85;;;;;;;22.59;16.49;98715.91;5078279;28;20031;-79
2022/03/08 07:45:29;;;;;;;13.55;8.20;;;;;;;22.44;16.05;98717.22;5081039;28;20031;-79
2022/03/08 07:47:55;;;;;;;18.98;8.50;;;;;;;22.32;16.56;98720.47;5074147;28;20475;-79
2022/03/08 07:50:25;;;;;;;18.58;9.82;;;;;;;22.17;16.42;98721.72;5082635;28;20036;-79
2022/03/08 07:52:52;;;;;;;15.52;7.05;;;;;;;21.96;16.67;98724.63;5078836;28;21308;-79
2022/03/08 07:55:18;;;;;;;12.52;6.95;;;;;;;21.35;17.29;98735.06;5079014;28;20032;-79
2022/03/08 07:57:44;;;;;;;15.80;8.02;;;;;;;21.27;17.25;98730.69;5083072;28;20466;-79
2022/03/08 08:00:11;;;;;;;16.48;9.88;;;;;;;21.44;17.17;98722.69;5085714;28;20032;-79
2022/03/08 08:02:37;;;;;;;12.95;6.35;;;;;;;21.38;17.12;98729.88;5077495;28;20032;-79
2022/03/08 08:05:04;;;;;;;12.90;6.30;;;;;;;21.05;17.65;98731.84;5081484;28;20458;-79
2022/03/08 08:07:30;;;;;;;17.08;7.53;;;;;;;20.86;17.85;98720.25;5086065;28;20426;-79
2022/03/08 08:09:56;;;;;;;15.13;8.75;;;;;;;21.35;17.44;98721.09;5082318;28;20029;-79
2022/03/08 08:12:22;;;;;;;15.02;7.15;;;;;;;21.51;17.16;98723.50;5084024;28;20039;-79
2022/03/08 08:14:48;;;;;;;17.42;10.18;;;;;;;21.54;17.37;98719.88;5085195;28;20029;-79
2022/03/08 08:17:15;;;;;;;12.82;7.22;;;;;;;21.62;17.07;98729.03;5081329;28;20051;-79
2022/03/08 08:19:42;;;;;;;19.90;8.30;;;;;;;22.20;16.63;98725.69;5084211;28;20066;-79
2022/03/08 08:22:08;;;;;;;18.13;8.23;;;;;;;22.00;16.53;98733.78;5080659;28;20427;-79
2022/03/08 08:24:35;;;;;;;18.45;8.77;;;;;;;22.11;16.32;98733.72;5077619;28;20071;-79
2022/03/08 08:27:01;;;;;;;15.20;7.50;;;;;;;21.67;17.07;98748.19;5086520;28;20089;-79
2022/03/08 08:29:27;;;;;;;14.95;7.90;;;;;;;22.07;16.56;98732.97;5078097;28;20450;-79
2022/03/08 08:31:53;;;;;;;14.32;7.78;;;;;;;21.95;16.69;98728.59;5077980;28;20131;-79
2022/03/08 08:34:19;;;;;;;11.85;6.95;;;;;;;21.58;17.31;98736.63;5086396;28;20426;-79
2022/03/08 08:36:47;;;;;;;14.15;8.23;;;;;;;22.02;17.14;98740.56;5081610;28;20037;-79
2022/03/08 08:39:14;;;;;;;16.67;7.82;;;;;;;21.84;17.10;98750.22;5091041;28;20031;-79
2022/03/08 08:41:42;;;;;;;17.33;7.95;;;;;;;21.40;17.68;98756.19;5079646;28;20024;-79
2022/03/08 08:44:08;;;;;;;16.65;7.50;;;;;;;22.18;16.71;98751.28;5078441;28;20024;-79
2022/03/08 08:46:34;;;;;;;13.48;7.15;;;;;;;23.16;16.15;98749.97;5078634;28;20531;-79
2022/03/08 08:49:01;;;;;;;13.73;7.45;;;;;;;22.68;16.14;98754.69;5080737;28;20115;-79
2022/03/08 08:51:27;;;;;;;14.52;7.15;;;;;;;22.31;16.45;98766.41;5084239;28;20447;-79
2022/03/08 08:53:53;;;;;;;13.00;6.80;;;;;;;21.64;17.31;98766.56;5082534;28;20024;-79
2022/03/08 08:56:19;;;;;;;12.20;5.93;;;;;;;22.06;16.62;98757.31;5079799;28;20036;-79
2022/03/08 08:58:45;;;;;;;12.25;7.22;;;;;;;22.47;16.38;98763.97;5090435;28;20524;-79
2022/03/08 09:01:11;;;;;;;20.08;7.90;;;;;;;22.74;16.48;98760.66;5083832;28;20032;-79
2022/03/08 09:03:37;;;;;;;11.20;6.45;;;;;;;22.58;16.55;98761.91;5045264;28;20052;-79
2022/03/08 09:06:04;;;;;;;11.60;6.70;;;;;;;22.01;16.81;98763.31;5079241;28;20115;-79
2022/03/08 09:08:30;;;;;;;14.65;8.43;;;;;;;22.19;16.74;98766.09;5088868;28;20462;-79
2022/03/08 09:10:56;;;;;;;11.75;6.38;;;;;;;22.08;16.70;98768.13;5080855;28;20028;-79
2022/03/08 09:13:24;;;;;;;14.25;7.25;;;;;;;21.53;17.30;98770.56;5083985;28;20473;-79
2022/03/08 09:15:50;;;;;;;10.65;6.15;;;;;;;20.81;17.77;98771.69;5082822;28;20103;-79
2022/03/08 09:18:16;;;;;;;14.85;8.43;;;;;;;20.66;18.41;98770.03;5076357;28;20102;-79
2022/03/08 09:20:43;;;;;;;15.05;9.27;;;;;;;19.81;19.31;98769.63;5079350;28;20499;-79
2022/03/08 09:23:10;;;;;;;17.42;9.13;;;;;;;18.55;20.81;98781.19;5081860;28;20120;-80
2022/03/08 09:25:36;;;;;;;14.73;9.18;;;;;;;19.58;19.57;98768.28;5065207;28;20048;-79
2022/03/08 09:28:05;;;;;;;18.67;8.57;;;;;;;20.03;19.07;98776.13;5079967;28;20038;-79
2022/03/08 09:30:33;;;;;;;14.70;8.35;;;;;;;21.56;17.80;98770.59;5079179;28;24183;-79
2022/03/08 09:33:01;;;;;;;15.85;8.98;;;;;;;20.94;18.00;98777.69;5085271;28;20031;-79
2022/03/08 09:35:28;;;;;;;18.35;9.13;;;;;;;20.73;18.20;98772.06;5078921;28;20138;-79
2022/03/08 09:37:55;;;;;;;16.23;8.43;;;;;;;21.35;17.89;98781.75;5081848;28;20035;-79
2022/03/08 09:40:22;;;;;;;23.85;10.18;;;;;;;21.35;17.75;98770.59;5096449;28;20031;-79
2022/03/08 09:42:52;;;;;;;21.90;9.90;;;;;;;21.30;17.90;98770.97;5078615;28;20059;-79
2022/03/08 09:45:18;;;;;;;23.30;11.90;;;;;;;21.17;17.95;98767.78;5081589;28;20032;-79
2022/03/08 09:47:45;;;;;;;22.20;11.75;;;;;;;21.85;17.49;98765.75;5082819;28;20504;-79
2022/03/08 09:50:12;;;;;;;18.45;10.52;;;;;;;22.05;17.25;98768.91;5083422;28;20497;-79
2022/03/08 09:52:40;;;;;;;24.25;12.15;;;;;;;21.84;17.14;98772.56;5080474;28;20107;-79
2022/03/08 09:55:09;;;;;;;22.48;10.55;;;;;;;22.19;16.96;98774.47;5080133;28;20374;-79
2022/03/08 09:57:35;;;;;;;17.17;8.68;;;;;;;21.22;18.00;98775.75;5074875;28;20459;-79
2022/03/08 10:00:03;;;;;;;16.52;8.55;;;;;;;20.56;18.73;98782.75;5080451;28;20059;-79
2022/03/08 10:02:49;;;;;;;23.02;10.98;;;;;;;21.10;18.18;98778.94;5081394;28;20439;-79
2022/03/08 10:05:20;;;;;;;20.52;9.35;;;;;;;21.89;17.75;98772.94;5078163;28;20040;-79
2022/03/08 10:08:08;;;;;;;27.88;11.90;;;;;;;22.03;17.27;98772.13;5079887;28;20044;-79
2022/03/08 10:10:45;;;;;;;18.33;9.98;;;;;;;22.45;16.73;98766.38;5085159;28;20040;-79
2022/03/08 10:13:12;;;;;;;21.38;9.55;;;;;;;23.27;16.23;98766.69;5080106;28;20085;-79
2022/03/08 10:15:39;;;;;;;20.95;11.45;;;;;;;23.06;16.16;98770.44;5068939;28;20034;-78
2022/03/08 10:18:06;;;;;;;17.25;9.27;;;;;;;23.34;15.97;98764.66;5085388;28;20036;-77
2022/03/08 10:20:34;;;;;;;17.85;10.10;;;;;;;22.72;16.66;98766.66;5079754;28;20102;-77
2022/03/08 10:23:02;;;;;;;17.02;8.23;;;;;;;22.87;16.66;98773.75;5085685;28;20151;-78
2022/03/08 10:25:31;;;;;;;18.35;9.13;;;;;;;23.26;15.99;98774.31;5086654;28;20082;-77
2022/03/08 10:27:59;;;;;;;14.25;8.23;;;;;;;23.70;15.52;98765.16;5080046;28;20047;-78
2022/03/08 10:30:28;;;;;;;18.52;7.93;;;;;;;23.96;15.17;98769.31;5084168;28;20027;-78
2022/03/08 10:32:59;;;;;;;15.18;8.23;;;;;;;24.07;15.40;98769.22;5086361;28;20028;-78
2022/03/08 10:35:29;;;;;;;18.42;8.80;;;;;;;23.76;15.20;98766.28;5082528;28;20028;-78
2022/03/08 10:38:05;;;;;;;15.23;9.00;;;;;;;22.65;16.10;98767.50;5089964;28;20040;-78
2022/03/08 10:40:32;;;;;;;13.52;6.60;;;;;;;22.76;16.30;98763.84;5089777;28;20055;-78
2022/03/08 10:43:04;;;;;;;14.85;8.95;;;;;;;22.14;16.93;98764.50;5083947;28;20024;-78
2022/03/08 10:45:32;;;;;;;14.15;7.35;;;;;;;22.22;16.82;98766.06;5085789;28;20032;-78
2022/03/08 10:47:58;;;;;;;16.65;8.50;;;;;;;21.76;17.31;98765.34;5086233;28;20032;-78
2022/03/08 10:50:31;;;;;;;14.05;7.60;;;;;;;21.95;16.68;98759.34;5079720;28;20718;-78
2022/03/08 10:52:58;;;;;;;12.88;7.13;;;;;;;22.62;16.35;98759.13;5082820;28;20024;-78
2022/03/08 10:55:35;;;;;;;10.48;6.75;;;;;;;23.05;15.82;98748.47;5079704;28;20036;-78
2022/03/08 10:58:10;;;;;;;13.27;6.47;;;;;;;24.07;15.82;98746.75;5084558;28;20032;-78
2022/03/08 11:00:42;;;;;;;12.93;6.80;;;;;;;23.59;15.38;98741.25;5080100;28;20382;-78
2022/03/08 11:03:12;;;;;;;17.48;6.47;;;;;;;21.91;16.50;98739.78;5089757;28;20031;-78
2022/03/08 11:05:44;;;;;;;13.52;6.43;;;;;;;23.63;15.44;98744.78;5082572;28;20037;-78
2022/03/08 11:08:11;;;;;;;10.27;5.65;;;;;;;24.74;14.24;98741.09;5072827;28;20032;-78
2022/03/08 11:10:38;;;;;;;10.35;5.00;;;;;;;23.83;14.22;98723.34;5085488;28;20077;-78
2022/03/08 11:13:06;;;;;;;6.70;3.72;;;;;;;21.02;16.85;98743.81;5079595;28;20028;-78
2022/03/08 11:15:35;;;;;;;7.15;4.15;;;;;;;20.90;16.87;98738.59;5070832;28;20097;-78
2022/03/08 11:18:04;;;;;;;8.27;4.35;;;;;;;20.68;17.09;98743.34;5082039;28;20031;-78